createdAt,value
2019-04-20T00:01:58.258Z,20.87
2019-04-20T00:05:01.086Z,24.47
2019-04-20T00:08:09.106Z,25.97
2019-04-20T00:11:17.697Z,32.20
2019-04-20T00:14:23.900Z,31.53
2019-04-20T00:17:22.041Z,31.90
2019-04-20T00:20:30.652Z,27.70
2019-04-20T00:23:38.375Z,24.63
2019-04-20T00:29:58.677Z,22.50
2019-04-20T00:32:58.516Z,23.10
2019-04-20T00:35:55.414Z,22.00
2019-04-20T00:39:02.730Z,22.93
2019-04-20T00:42:09.675Z,24.80
2019-04-20T00:45:18.227Z,25.57
2019-04-20T00:48:31.494Z,23.53
2019-04-20T00:51:35.127Z,22.53
2019-04-20T00:54:28.438Z,21.90
2019-04-20T00:57:41.384Z,21.40
2019-04-20T01:01:04.265Z,20.63
2019-04-20T01:03:58.502Z,20.20
2019-04-20T01:07:06.075Z,20.00
2019-04-20T01:10:00.535Z,20.13
2019-04-20T01:13:11.044Z,18.50
2019-04-20T01:16:21.852Z,19.23
2019-04-20T01:19:15.796Z,19.30
2019-04-20T01:22:24.116Z,18.00
2019-04-20T01:25:32.326Z,17.03
2019-04-20T01:28:47.791Z,18.87
2019-04-20T01:31:53.102Z,17.30
2019-04-20T01:34:56.425Z,18.63
2019-04-20T01:38:07.465Z,17.50
2019-04-20T01:40:54.945Z,19.03
2019-04-20T01:43:58.895Z,18.30
2019-04-20T01:47:06.267Z,18.07
2019-04-20T01:50:14.214Z,18.37
2019-04-20T01:53:32.534Z,17.00
2019-04-20T01:56:37.392Z,19.00
2019-04-20T01:59:44.904Z,17.13
2019-04-20T02:02:46.083Z,18.10
2019-04-20T02:05:53.028Z,18.83
2019-04-20T02:08:50.879Z,19.20
2019-04-20T02:11:55.694Z,18.43
2019-04-20T02:15:04.207Z,17.43
2019-04-20T02:18:20.573Z,18.30
2019-04-20T02:21:28.250Z,17.57
2019-04-20T02:24:17.855Z,16.57
2019-04-20T02:27:32.091Z,17.47
2019-04-20T02:31:04.684Z,14.87
2019-04-20T02:34:17.948Z,16.43
2019-04-20T02:40:27.085Z,15.13
2019-04-20T02:43:40.166Z,15.67
2019-04-20T02:46:41.391Z,15.73
2019-04-20T02:49:41.989Z,14.50
2019-04-20T02:52:56.862Z,15.03
2019-04-20T02:55:57.700Z,14.33
2019-04-20T02:59:12.622Z,14.53
2019-04-20T03:01:50.221Z,14.73
2019-04-20T03:04:47.101Z,14.37
2019-04-20T03:08:02.260Z,14.77
2019-04-20T03:11:15.856Z,14.93
2019-04-20T03:14:10.154Z,15.00
2019-04-20T03:17:21.167Z,15.57
2019-04-20T03:20:29.508Z,15.03
2019-04-20T03:23:44.430Z,14.90
2019-04-20T03:26:36.560Z,14.80
2019-04-20T03:29:58.501Z,14.97
2019-04-20T03:33:12.665Z,14.00
2019-04-20T03:36:16.250Z,14.77
2019-04-20T03:39:04.197Z,13.93
2019-04-20T03:41:55.135Z,13.73
2019-04-20T03:45:05.323Z,13.87
2019-04-20T03:48:14.358Z,14.73
2019-04-20T03:51:33.479Z,13.27
2019-04-20T03:54:36.918Z,14.40
2019-04-20T03:57:52.933Z,13.93
2019-04-20T04:00:54.527Z,14.07
2019-04-20T04:04:09.436Z,14.57
2019-04-20T04:06:58.076Z,14.43
2019-04-20T04:10:15.977Z,13.40
2019-04-20T04:13:14.757Z,14.00
2019-04-20T04:16:21.888Z,13.97
2019-04-20T04:19:30.249Z,13.67
2019-04-20T04:22:43.952Z,13.77
2019-04-20T04:25:55.684Z,14.10
2019-04-20T04:29:02.680Z,14.50
2019-04-20T04:32:17.343Z,13.67
2019-04-20T04:35:05.621Z,14.20
2019-04-20T04:38:24.093Z,14.77
2019-04-20T04:41:24.017Z,16.27
2019-04-20T04:44:19.218Z,16.03
2019-04-20T04:47:15.005Z,16.97
2019-04-20T04:50:24.525Z,15.63
2019-04-20T04:53:40.848Z,16.50
2019-04-20T04:56:31.942Z,15.83
2019-04-20T04:59:36.227Z,15.70
2019-04-20T05:02:45.291Z,16.03
2019-04-20T05:06:06.687Z,16.57
2019-04-20T05:09:00.201Z,15.00
2019-04-20T05:12:09.837Z,14.20
2019-04-20T05:15:14.393Z,14.87
2019-04-20T05:18:43.495Z,16.00
2019-04-20T05:21:39.826Z,18.80
2019-04-20T05:24:53.635Z,20.10
2019-04-20T05:27:56.294Z,19.50
2019-04-20T05:30:59.063Z,19.73
2019-04-20T05:34:20.371Z,19.83
2019-04-20T05:37:34.271Z,20.40
2019-04-20T05:40:32.573Z,19.67
2019-04-20T05:43:37.189Z,18.50
2019-04-20T05:46:42.473Z,18.73
2019-04-20T05:49:46.870Z,15.67
2019-04-20T05:52:59.838Z,16.05
2019-04-20T05:55:54.674Z,16.97
2019-04-20T05:59:09.778Z,18.90
2019-04-20T06:02:09.767Z,18.52
2019-04-20T06:05:19.564Z,18.85
2019-04-20T06:08:34.158Z,18.50
2019-04-20T06:11:37.035Z,19.97
2019-04-20T06:14:49.208Z,22.10
2019-04-20T06:17:59.718Z,21.37
2019-04-20T06:21:16.255Z,19.95
2019-04-20T06:24:20.807Z,19.35
2019-04-20T06:27:29.327Z,19.98
2019-04-20T06:30:25.186Z,20.35
2019-04-20T06:34:08.943Z,20.43
2019-04-20T06:36:57.181Z,20.35
2019-04-20T06:40:25.361Z,20.05
2019-04-20T06:43:16.239Z,20.72
2019-04-20T06:46:16.911Z,19.65
2019-04-20T06:49:32.058Z,19.80
2019-04-20T06:52:34.387Z,20.30
2019-04-20T06:55:38.602Z,19.87
2019-04-20T06:59:01.670Z,19.02
2019-04-20T07:01:58.322Z,19.27
2019-04-20T07:08:02.008Z,19.17
2019-04-20T07:11:08.245Z,19.02
2019-04-20T07:13:56.958Z,19.70
2019-04-20T07:17:34.922Z,18.20
2019-04-20T07:20:56.765Z,18.23
2019-04-20T07:23:54.426Z,18.35
2019-04-20T07:26:55.550Z,18.25
2019-04-20T07:30:03.966Z,17.15
2019-04-20T07:33:09.100Z,17.75
2019-04-20T07:36:19.903Z,17.90
2019-04-20T07:39:24.241Z,18.07
2019-04-20T07:42:28.930Z,16.90
2019-04-20T07:45:35.112Z,17.52
2019-04-20T07:48:39.303Z,17.25
2019-04-20T07:51:28.259Z,17.75
2019-04-20T07:55:03.607Z,16.52
2019-04-20T07:57:47.286Z,17.70
2019-04-20T08:01:10.279Z,16.97
2019-04-20T08:04:09.319Z,17.07
2019-04-20T08:06:58.484Z,15.60
2019-04-20T08:10:04.015Z,16.37
2019-04-20T08:13:32.001Z,16.00
2019-04-20T08:16:41.140Z,16.77
2019-04-20T08:19:36.685Z,16.17
2019-04-20T08:22:42.094Z,17.05
2019-04-20T08:25:38.808Z,18.20
2019-04-20T08:28:42.580Z,16.60
2019-04-20T08:31:55.812Z,16.67
2019-04-20T08:35:04.925Z,16.45
2019-04-20T08:38:37.363Z,14.73
2019-04-20T08:41:12.841Z,15.33
2019-04-20T08:44:41.411Z,15.45
2019-04-20T08:47:41.727Z,15.93
2019-04-20T08:50:34.060Z,15.13
2019-04-20T08:53:42.088Z,13.53
2019-04-20T08:56:34.876Z,14.20
2019-04-20T08:59:32.372Z,13.73
2019-04-20T09:02:36.912Z,13.13
2019-04-20T09:05:52.265Z,13.47
2019-04-20T09:09:03.366Z,12.90
2019-04-20T09:12:11.570Z,12.23
2019-04-20T09:14:59.421Z,12.40
2019-04-20T09:18:29.026Z,10.27
2019-04-20T09:21:37.980Z,7.92
2019-04-20T09:24:51.467Z,4.20
2019-04-20T09:27:45.730Z,6.58
2019-04-20T09:30:54.383Z,7.50
2019-04-20T09:34:14.432Z,9.18
2019-04-20T09:37:25.887Z,9.97
2019-04-20T09:40:32.158Z,9.77
2019-04-20T09:43:30.388Z,7.00
2019-04-20T09:46:39.968Z,7.00
2019-04-20T09:49:51.901Z,7.22
2019-04-20T09:53:02.442Z,8.23
2019-04-20T09:56:10.914Z,9.23
2019-04-20T09:59:16.841Z,8.83
2019-04-20T10:02:08.852Z,9.03
2019-04-20T10:05:07.672Z,8.40
2019-04-20T10:08:11.816Z,8.47
2019-04-20T10:11:17.041Z,8.27
2019-04-20T10:14:22.518Z,8.10
2019-04-20T10:17:29.649Z,8.70
2019-04-20T10:20:36.146Z,8.33
2019-04-20T10:23:38.640Z,8.93
2019-04-20T10:26:42.871Z,9.90
2019-04-20T10:29:46.690Z,7.95
2019-04-20T10:32:53.841Z,7.53
2019-04-20T10:35:57.338Z,8.63
2019-04-20T10:39:02.383Z,9.07
2019-04-20T10:42:07.994Z,21.23
2019-04-20T10:45:12.839Z,9.43
2019-04-20T10:48:17.342Z,9.05
2019-04-20T10:51:21.813Z,9.30
2019-04-20T10:54:26.689Z,11.30
2019-04-20T10:57:31.285Z,10.13
2019-04-20T11:00:43.977Z,10.13
2019-04-20T11:03:48.051Z,12.67
2019-04-20T11:06:52.403Z,15.95
2019-04-20T11:10:10.673Z,10.58
2019-04-20T11:13:03.209Z,18.10
2019-04-20T11:16:08.394Z,10.40
2019-04-20T11:19:13.535Z,11.33
2019-04-20T11:22:17.481Z,9.08
2019-04-20T11:25:22.105Z,8.88
2019-04-20T11:28:26.260Z,8.88
2019-04-20T11:31:37.343Z,8.93
2019-04-20T11:34:38.957Z,9.30
2019-04-20T11:37:41.169Z,10.00
2019-04-20T11:40:45.074Z,9.58
2019-04-20T11:43:49.452Z,9.18
2019-04-20T11:46:54.525Z,9.30
2019-04-20T11:49:59.570Z,9.53
2019-04-20T11:53:03.590Z,9.13
2019-04-20T11:56:14.502Z,9.75
2019-04-20T11:59:14.557Z,9.23
2019-04-20T12:02:34.381Z,9.08
2019-04-20T12:05:38.098Z,8.73
2019-04-20T12:08:40.459Z,7.85
2019-04-20T12:11:56.293Z,7.72
2019-04-20T12:14:48.920Z,6.50
2019-04-20T12:17:53.654Z,7.00
2019-04-20T12:20:58.803Z,7.40
2019-04-20T12:24:02.842Z,6.70
2019-04-20T12:27:06.943Z,5.08
2019-04-20T12:30:12.101Z,5.42
2019-04-20T12:33:16.000Z,4.97
2019-04-20T12:36:20.539Z,4.75
2019-04-20T12:39:24.906Z,4.92
2019-04-20T12:42:28.961Z,4.65
2019-04-20T12:45:33.550Z,4.15
2019-04-20T12:48:37.785Z,4.20
2019-04-20T12:51:48.658Z,4.35
2019-04-20T12:54:47.980Z,4.00
2019-04-20T12:57:52.478Z,4.37
2019-04-20T13:00:56.663Z,3.87
2019-04-20T13:04:02.888Z,3.87
2019-04-20T13:07:06.042Z,3.40
2019-04-20T13:10:11.544Z,3.50
2019-04-20T13:13:32.436Z,3.37
2019-04-20T13:16:38.677Z,3.00
2019-04-20T13:19:42.581Z,3.00
2019-04-20T13:22:46.651Z,2.70
2019-04-20T13:25:50.869Z,2.83
2019-04-20T13:28:55.101Z,3.10
2019-04-20T13:32:00.067Z,3.12
2019-04-20T13:35:05.191Z,3.08
2019-04-20T13:38:09.997Z,2.72
2019-04-20T13:41:13.890Z,3.12
2019-04-20T13:44:18.020Z,2.62
2019-04-20T13:47:23.103Z,2.70
2019-04-20T13:50:29.447Z,2.90
2019-04-20T13:53:32.951Z,2.65
2019-04-20T13:56:37.650Z,3.25
2019-04-20T13:59:44.072Z,3.00
2019-04-20T14:02:50.775Z,2.77
2019-04-20T14:05:56.141Z,2.90
2019-04-20T14:09:01.306Z,2.80
2019-04-20T14:12:20.116Z,2.92
2019-04-20T14:15:11.318Z,4.25
2019-04-20T14:18:15.281Z,3.15
2019-04-20T14:21:20.324Z,3.00
2019-04-20T14:24:24.812Z,2.60
2019-04-20T14:27:28.974Z,2.42
2019-04-20T14:30:33.108Z,2.80
2019-04-20T14:33:37.078Z,3.52
2019-04-20T14:36:41.262Z,2.15
2019-04-20T14:39:46.160Z,2.33
2019-04-20T14:42:53.144Z,2.45
2019-04-20T14:45:56.664Z,2.27
2019-04-20T14:49:00.799Z,2.67
2019-04-20T14:52:06.203Z,3.00
2019-04-20T14:55:13.454Z,2.83
2019-04-20T14:58:37.547Z,2.77
2019-04-20T15:01:44.823Z,2.80
2019-04-20T15:04:50.283Z,2.93
2019-04-20T15:07:54.511Z,2.60
2019-04-20T15:10:58.845Z,3.00
2019-04-20T15:14:02.744Z,3.42
2019-04-20T15:17:08.799Z,3.33
2019-04-20T15:20:21.348Z,3.35
2019-04-20T15:23:27.780Z,4.67
2019-04-20T15:26:31.905Z,3.20
2019-04-20T15:29:36.091Z,3.53
2019-04-20T15:32:40.925Z,3.98
2019-04-20T15:35:46.055Z,3.92
2019-04-20T15:38:51.277Z,3.80
2019-04-20T15:41:55.491Z,3.60
2019-04-20T15:44:59.333Z,3.90
2019-04-20T15:48:03.799Z,3.53
2019-04-20T15:51:08.025Z,3.30
2019-04-20T15:54:13.496Z,3.53
2019-04-20T15:57:23.000Z,3.33
2019-04-20T16:00:24.479Z,3.00
2019-04-20T16:03:30.033Z,3.30
2019-04-20T16:06:34.963Z,3.63
2019-04-20T16:09:39.922Z,3.60
2019-04-20T16:12:44.886Z,3.50
2019-04-20T16:15:49.736Z,3.30
2019-04-20T16:18:55.070Z,3.43
2019-04-20T16:21:59.540Z,3.60
2019-04-20T16:25:05.560Z,3.17
2019-04-20T16:28:09.865Z,3.70
2019-04-20T16:31:15.404Z,4.20
2019-04-20T16:34:19.403Z,4.40
2019-04-20T16:37:24.467Z,3.90
2019-04-20T16:40:29.448Z,5.30
2019-04-20T16:43:38.983Z,4.77
2019-04-20T16:46:40.340Z,4.60
2019-04-20T16:49:44.344Z,3.73
2019-04-20T16:52:48.835Z,3.70
2019-04-20T16:55:52.981Z,4.07
2019-04-20T16:59:01.491Z,13.80
2019-04-20T17:02:02.550Z,31.57
2019-04-20T17:05:07.257Z,12.27
2019-04-20T17:08:11.323Z,10.17
2019-04-20T17:11:16.042Z,7.97
2019-04-20T17:14:20.900Z,5.87
2019-04-20T17:17:25.761Z,4.90
2019-04-20T17:20:30.658Z,6.63
2019-04-20T17:23:35.263Z,5.53
2019-04-20T17:26:52.997Z,5.40
2019-04-20T17:30:03.071Z,5.10
2019-04-20T17:33:08.503Z,6.03
2019-04-20T17:36:19.029Z,6.27
2019-04-20T17:39:27.731Z,10.33
2019-04-20T17:42:38.507Z,13.27
2019-04-20T17:45:41.989Z,10.90
2019-04-20T17:48:45.187Z,8.60
2019-04-20T17:52:06.230Z,7.37
2019-04-20T17:54:53.449Z,8.13
2019-04-20T17:57:57.567Z,11.57
2019-04-20T18:01:20.465Z,10.63
2019-04-20T18:07:41.222Z,10.73
2019-04-20T18:10:41.863Z,10.50
2019-04-20T18:13:34.112Z,14.47
2019-04-20T18:17:11.415Z,19.03
2019-04-20T18:20:05.190Z,16.83
2019-04-20T18:23:10.771Z,14.40
2019-04-20T18:26:31.995Z,13.80
2019-04-20T18:29:42.101Z,12.47
2019-04-20T18:32:37.628Z,13.40
2019-04-20T18:35:45.985Z,15.20
2019-04-20T18:38:55.321Z,18.00
2019-04-20T18:41:57.480Z,21.63
2019-04-20T18:45:16.015Z,20.80
2019-04-20T18:48:24.996Z,20.23
2019-04-20T18:51:09.967Z,17.37
2019-04-20T18:54:20.844Z,18.37
2019-04-20T18:57:24.882Z,20.80
2019-04-20T19:00:31.584Z,20.70
2019-04-20T19:03:35.678Z,17.57
2019-04-20T19:06:36.201Z,14.00
2019-04-20T19:09:41.072Z,12.80
2019-04-20T19:12:55.269Z,10.87
2019-04-20T19:16:06.810Z,8.30
2019-04-20T19:19:20.050Z,7.90
2019-04-20T19:22:12.165Z,8.03
2019-04-20T19:25:22.366Z,8.03
2019-04-20T19:28:26.105Z,8.23
2019-04-20T19:31:42.711Z,9.03
2019-04-20T19:34:45.404Z,9.63
2019-04-20T19:37:51.672Z,8.87
2019-04-20T19:40:54.577Z,9.03
2019-04-20T19:44:03.981Z,8.77
2019-04-20T19:47:17.006Z,8.40
2019-04-20T19:50:31.223Z,8.17
2019-04-20T19:53:26.107Z,8.57
2019-04-20T19:56:34.087Z,8.60
2019-04-20T19:59:26.096Z,8.50
2019-04-20T20:02:23.599Z,8.50
2019-04-20T20:05:33.716Z,8.90
2019-04-20T20:08:35.963Z,8.57
2019-04-20T20:11:42.365Z,8.90
2019-04-20T20:14:47.486Z,9.63
2019-04-20T20:18:10.965Z,10.00
2019-04-20T20:21:08.695Z,9.70
2019-04-20T20:24:01.910Z,11.33
2019-04-20T20:27:17.105Z,13.60
2019-04-20T20:30:20.430Z,17.57
2019-04-20T20:33:34.877Z,18.20
2019-04-20T20:36:28.932Z,16.60
2019-04-20T20:39:31.631Z,13.27
2019-04-20T20:42:51.374Z,12.90
2019-04-20T20:45:49.719Z,12.17
2019-04-20T20:52:12.320Z,9.57
2019-04-20T20:55:03.765Z,9.97
2019-04-20T20:58:10.318Z,9.27
2019-04-20T21:01:14.398Z,9.83
2019-04-20T21:04:12.835Z,9.47
2019-04-20T21:07:16.664Z,9.80
2019-04-20T21:10:26.917Z,11.27
2019-04-20T21:13:34.555Z,12.27
2019-04-20T21:16:36.410Z,13.93
2019-04-20T21:19:54.617Z,13.67
2019-04-20T21:23:01.305Z,14.27
2019-04-20T21:26:06.882Z,12.97
2019-04-20T21:29:10.929Z,12.50
2019-04-20T21:32:17.942Z,14.83
2019-04-20T21:35:21.733Z,15.13
2019-04-20T21:38:30.526Z,15.90
2019-04-20T21:41:31.545Z,15.20
2019-04-20T21:44:40.760Z,14.77
2019-04-20T21:47:42.759Z,14.80
2019-04-20T21:51:01.520Z,13.97
2019-04-20T21:53:56.388Z,13.90
2019-04-20T21:57:03.129Z,14.30
2019-04-20T22:00:10.355Z,14.07
2019-04-20T22:03:11.879Z,13.77
2019-04-20T22:06:16.416Z,13.03
2019-04-20T22:09:20.438Z,14.23
2019-04-20T22:12:28.487Z,13.43
2019-04-20T22:15:34.629Z,13.37
2019-04-20T22:18:48.429Z,13.57
2019-04-20T22:21:53.366Z,12.30
2019-04-20T22:25:01.392Z,12.97
2019-04-20T22:27:51.853Z,12.67
2019-04-20T22:30:55.854Z,12.63
2019-04-20T22:34:02.267Z,11.80
2019-04-20T22:37:09.789Z,12.27
2019-04-20T22:40:18.009Z,12.20
2019-04-20T22:43:24.070Z,11.97
2019-04-20T22:46:28.434Z,11.07
2019-04-20T22:49:45.503Z,11.40
2019-04-20T22:52:44.460Z,11.87
2019-04-20T22:56:02.784Z,11.77
2019-04-20T22:58:57.652Z,12.17
2019-04-20T23:01:55.204Z,12.30
2019-04-20T23:04:57.188Z,11.67
2019-04-20T23:08:02.419Z,12.43
2019-04-20T23:11:14.882Z,12.70
2019-04-20T23:14:11.884Z,13.57
2019-04-20T23:17:18.376Z,14.27
2019-04-20T23:20:26.953Z,14.50
2019-04-20T23:23:29.205Z,13.70
2019-04-20T23:26:36.807Z,12.87
2019-04-20T23:29:40.057Z,13.93
2019-04-20T23:32:44.127Z,13.07
2019-04-20T23:35:53.022Z,13.50
2019-04-20T23:38:57.750Z,13.60
2019-04-20T23:42:05.057Z,13.13
2019-04-20T23:45:13.639Z,12.20
2019-04-20T23:48:28.456Z,12.47
2019-04-20T23:51:49.904Z,12.60
2019-04-20T23:54:37.579Z,12.13
2019-04-20T23:57:41.933Z,12.40
